Time;durP1;ratioP1;P1;durP2;ratioP2;P2;SDS_P1;SDS_P2;PMS_P1;PMS_P2;Temp;Humidity;BMP_temperature;BMP_pressure;BME280_temperature;BME280_humidity;BME280_pressure;Samples;Min_cycle;Max_cycle;Signal;HPM_P1;HPM_P2
2022/07/16 00:02:21;;;;;;;7.12;3.12;;;;;;;;;;4390186;32;20156;-66
2022/07/16 00:04:48;;;;;;;3.70;3.20;;;;;;;;;;4389743;32;20102;-66
2022/07/16 00:07:15;;;;;;;4.28;3.20;;;;;;;;;;4377541;32;20078;-66
2022/07/16 00:09:41;;;;;;;3.75;3.17;;;;;;;;;;4377417;32;20460;-67
2022/07/16 00:12:08;;;;;;;4.65;2.92;;;;;;;;;;4377666;32;20101;-66
2022/07/16 00:14:35;;;;;;;3.20;2.90;;;;;;;;;;4365459;32;20100;-66
2022/07/16 00:17:02;;;;;;;4.30;3.30;;;;;;;;;;4377534;32;20076;-66
2022/07/16 00:19:29;;;;;;;3.47;2.97;;;;;;;;;;4377170;32;20123;-67
2022/07/16 00:21:57;;;;;;;3.37;3.05;;;;;;;;;;4389925;32;20147;-66
2022/07/16 00:24:25;;;;;;;4.15;3.45;;;;;;;;;;4377191;32;20082;-66
2022/07/16 00:26:52;;;;;;;3.83;3.03;;;;;;;;;;4377323;32;20085;-66
2022/07/16 00:29:19;;;;;;;3.42;3.00;;;;;;;;;;4389813;32;20074;-66
2022/07/16 00:31:47;;;;;;;5.60;3.20;;;;;;;;;;4364874;32;20159;-67
2022/07/16 00:34:14;;;;;;;3.72;3.10;;;;;;;;;;4390018;32;20086;-67
2022/07/16 00:36:42;;;;;;;5.43;3.70;;;;;;;;;;4389783;32;20072;-67
2022/07/16 00:39:10;;;;;;;5.10;3.25;;;;;;;;;;4364755;32;20440;-66
2022/07/16 00:41:38;;;;;;;4.10;3.40;;;;;;;;;;4365011;32;20086;-68
2022/07/16 00:44:07;;;;;;;5.97;3.50;;;;;;;;;;4390350;32;20094;-67
2022/07/16 00:46:34;;;;;;;3.50;3.20;;;;;;;;;;4389746;32;20533;-67
2022/07/16 00:49:01;;;;;;;4.20;3.28;;;;;;;;;;4377648;32;20158;-67
2022/07/16 00:51:29;;;;;;;4.62;3.80;;;;;;;;;;4364456;32;20500;-67
2022/07/16 00:53:56;;;;;;;4.85;3.08;;;;;;;;;;4389894;32;20078;-67
2022/07/16 00:56:24;;;;;;;4.18;3.00;;;;;;;;;;4377261;32;20524;-67
2022/07/16 00:58:51;;;;;;;4.22;3.00;;;;;;;;;;4377031;32;20170;-67
2022/07/16 01:01:18;;;;;;;7.70;3.60;;;;;;;;;;4389694;32;20173;-67
2022/07/16 01:03:46;;;;;;;4.57;3.00;;;;;;;;;;4365089;32;20081;-67
2022/07/16 01:06:14;;;;;;;4.12;3.00;;;;;;;;;;4364542;32;20067;-67
2022/07/16 01:08:47;;;;;;;3.65;3.10;;;;;;;;;;4389606;32;20070;-67
2022/07/16 01:11:16;;;;;;;3.90;2.87;;;;;;;;;;4377636;32;20528;-66
2022/07/16 01:13:45;;;;;;;6.55;2.90;;;;;;;;;;4379666;32;20065;-67
2022/07/16 01:16:11;;;;;;;3.47;3.12;;;;;;;;;;4379892;32;20075;-66
2022/07/16 01:18:40;;;;;;;4.75;2.95;;;;;;;;;;4367930;32;20169;-67
2022/07/16 01:21:07;;;;;;;4.95;3.10;;;;;;;;;;4392263;32;20101;-66
2022/07/16 01:23:34;;;;;;;3.45;2.87;;;;;;;;;;4379855;32;20150;-67
2022/07/16 01:26:01;;;;;;;4.87;3.10;;;;;;;;;;4379252;32;20084;-67
2022/07/16 01:28:28;;;;;;;3.97;3.00;;;;;;;;;;4380019;32;20082;-66
2022/07/16 01:30:55;;;;;;;3.15;2.80;;;;;;;;;;4392394;32;20153;-66
2022/07/16 01:33:27;;;;;;;3.35;2.62;;;;;;;;;;4391967;32;20074;-66
2022/07/16 01:36:00;;;;;;;3.05;2.75;;;;;;;;;;4367123;32;20523;-66
2022/07/16 01:38:27;;;;;;;4.05;2.80;;;;;;;;;;4379509;32;20178;-67
2022/07/16 01:40:54;;;;;;;3.28;2.65;;;;;;;;;;4367073;32;20097;-66
2022/07/16 01:43:24;;;;;;;3.40;3.00;;;;;;;;;;4379396;32;20078;-66
2022/07/16 01:45:51;;;;;;;5.90;3.17;;;;;;;;;;4393568;32;20536;-67
2022/07/16 01:48:18;;;;;;;3.72;3.00;;;;;;;;;;4379556;32;20145;-67
2022/07/16 01:50:45;;;;;;;4.35;2.80;;;;;;;;;;4367130;32;20514;-67
2022/07/16 01:53:12;;;;;;;4.43;3.10;;;;;;;;;;4391948;32;20077;-66
2022/07/16 01:55:40;;;;;;;4.82;2.90;;;;;;;;;;4379274;32;20070;-67
2022/07/16 01:58:08;;;;;;;3.50;2.83;;;;;;;;;;4392198;32;20062;-67
2022/07/16 02:00:38;;;;;;;4.43;3.00;;;;;;;;;;4393048;32;20455;-67
2022/07/16 02:03:05;;;;;;;4.43;2.72;;;;;;;;;;4379779;32;20081;-66
2022/07/16 02:05:32;;;;;;;5.20;2.90;;;;;;;;;;4391776;32;20178;-67
2022/07/16 02:07:59;;;;;;;4.65;2.95;;;;;;;;;;4379647;32;20114;-66
2022/07/16 02:10:26;;;;;;;6.00;3.00;;;;;;;;;;4379820;32;20077;-67
2022/07/16 02:12:53;;;;;;;3.92;2.97;;;;;;;;;;4367368;32;20066;-66
2022/07/16 02:15:20;;;;;;;3.58;2.75;;;;;;;;;;4366727;32;20074;-67
2022/07/16 02:17:47;;;;;;;4.60;3.00;;;;;;;;;;4380636;32;20078;-67
2022/07/16 02:20:13;;;;;;;5.50;3.30;;;;;;;;;;4391683;32;20098;-66
2022/07/16 02:22:40;;;;;;;5.22;3.20;;;;;;;;;;4391516;32;20506;-67
2022/07/16 02:25:08;;;;;;;4.30;3.20;;;;;;;;;;4379034;32;20074;-67
2022/07/16 02:27:35;;;;;;;4.90;3.17;;;;;;;;;;4394904;32;20089;-66
2022/07/16 02:30:03;;;;;;;3.90;3.08;;;;;;;;;;4382935;32;20186;-67
2022/07/16 02:32:30;;;;;;;3.53;2.95;;;;;;;;;;4370582;32;20089;-66
2022/07/16 02:34:57;;;;;;;3.65;3.12;;;;;;;;;;4383091;32;20156;-67
2022/07/16 02:37:24;;;;;;;4.65;2.78;;;;;;;;;;4396086;32;20082;-69
2022/07/16 02:39:50;;;;;;;3.60;2.72;;;;;;;;;;4384533;32;20496;-67
2022/07/16 02:42:17;;;;;;;3.25;2.85;;;;;;;;;;4398425;32;20153;-66
2022/07/16 02:44:44;;;;;;;3.50;3.00;;;;;;;;;;4385968;32;20467;-66
2022/07/16 02:47:11;;;;;;;3.87;2.80;;;;;;;;;;4383656;32;20061;-67
2022/07/16 02:49:38;;;;;;;5.40;2.90;;;;;;;;;;4368858;32;20116;-67
2022/07/16 02:52:06;;;;;;;3.62;2.70;;;;;;;;;;4378215;32;20080;-66
2022/07/16 02:54:32;;;;;;;4.55;3.22;;;;;;;;;;4391465;32;20088;-66
2022/07/16 02:56:59;;;;;;;4.35;3.22;;;;;;;;;;4378762;32;20150;-66
2022/07/16 02:59:25;;;;;;;4.93;3.12;;;;;;;;;;4391054;32;20065;-66
2022/07/16 03:01:52;;;;;;;5.82;3.00;;;;;;;;;;4378391;32;20078;-65
2022/07/16 03:04:19;;;;;;;3.08;2.78;;;;;;;;;;4366130;32;20070;-65
2022/07/16 03:06:46;;;;;;;4.47;2.75;;;;;;;;;;4378595;32;20081;-67
2022/07/16 03:09:13;;;;;;;4.30;2.85;;;;;;;;;;4365768;32;20147;-67
2022/07/16 03:11:40;;;;;;;5.40;2.85;;;;;;;;;;4378071;32;20153;-66
2022/07/16 03:14:07;;;;;;;6.87;3.22;;;;;;;;;;4391007;32;20081;-67
2022/07/16 03:16:34;;;;;;;3.78;2.97;;;;;;;;;;4366239;32;20180;-65
2022/07/16 03:19:00;;;;;;;3.50;2.95;;;;;;;;;;4378279;32;20081;-67
2022/07/16 03:21:27;;;;;;;5.37;3.20;;;;;;;;;;4365461;32;20090;-67
2022/07/16 03:23:54;;;;;;;4.70;2.90;;;;;;;;;;4365685;32;20129;-66
2022/07/16 03:26:21;;;;;;;3.65;3.00;;;;;;;;;;4391177;32;20085;-66
2022/07/16 03:28:48;;;;;;;3.22;2.70;;;;;;;;;;4377830;32;20661;-67
2022/07/16 03:31:17;;;;;;;3.70;2.75;;;;;;;;;;4365327;32;20069;-66
2022/07/16 03:33:44;;;;;;;3.95;2.80;;;;;;;;;;4390149;32;20069;-67
2022/07/16 03:36:11;;;;;;;4.93;3.22;;;;;;;;;;4378211;32;20173;-67
2022/07/16 03:41:24;;;;;;;3.27;2.73;;;;;;;;;;4390736;32;20527;-67
2022/07/16 03:43:51;;;;;;;7.45;3.12;;;;;;;;;;4365356;32;20081;-67
2022/07/16 03:46:18;;;;;;;6.28;3.33;;;;;;;;;;4364871;32;20150;-67
2022/07/16 03:48:45;;;;;;;3.35;2.90;;;;;;;;;;4390444;32;20092;-66
2022/07/16 03:51:13;;;;;;;4.00;3.10;;;;;;;;;;4365580;32;20065;-65
2022/07/16 03:53:40;;;;;;;4.82;3.17;;;;;;;;;;4377736;32;20093;-67
2022/07/16 03:56:07;;;;;;;5.18;3.28;;;;;;;;;;4377754;32;20084;-66
2022/07/16 03:58:34;;;;;;;4.22;3.10;;;;;;;;;;4377895;32;20154;-67
2022/07/16 04:01:01;;;;;;;4.65;2.92;;;;;;;;;;4365145;32;20081;-66
2022/07/16 04:03:28;;;;;;;3.72;3.12;;;;;;;;;;4377470;32;20070;-66
2022/07/16 04:05:56;;;;;;;4.43;2.90;;;;;;;;;;4377294;32;20077;-67
2022/07/16 04:08:22;;;;;;;5.43;3.40;;;;;;;;;;4365104;32;20084;-67
2022/07/16 04:10:49;;;;;;;4.05;2.70;;;;;;;;;;4389704;32;20073;-66
2022/07/16 04:13:17;;;;;;;4.78;3.40;;;;;;;;;;4377680;32;20161;-67
2022/07/16 04:15:43;;;;;;;3.78;3.00;;;;;;;;;;4377495;32;20169;-66
2022/07/16 04:18:10;;;;;;;4.07;3.20;;;;;;;;;;4389846;32;20100;-66
2022/07/16 04:20:37;;;;;;;4.70;3.28;;;;;;;;;;4377984;32;20088;-66
2022/07/16 04:23:04;;;;;;;5.60;3.47;;;;;;;;;;4377427;32;20506;-67
2022/07/16 04:25:31;;;;;;;6.55;3.62;;;;;;;;;;4389360;32;20161;-67
2022/07/16 04:27:58;;;;;;;7.68;3.40;;;;;;;;;;4377659;32;20091;-66
2022/07/16 04:30:24;;;;;;;4.37;3.42;;;;;;;;;;4364781;32;20070;-66
2022/07/16 04:32:52;;;;;;;4.45;3.33;;;;;;;;;;4377886;32;20501;-66
2022/07/16 04:35:19;;;;;;;3.55;3.22;;;;;;;;;;4364618;32;20171;-67
2022/07/16 04:37:46;;;;;;;5.87;3.28;;;;;;;;;;4364766;32;20073;-67
2022/07/16 04:40:13;;;;;;;7.15;3.28;;;;;;;;;;4377415;32;20174;-67
2022/07/16 04:42:42;;;;;;;7.62;3.50;;;;;;;;;;4364901;32;20085;-66
2022/07/16 04:45:13;;;;;;;4.57;3.47;;;;;;;;;;4378328;32;20134;-66
2022/07/16 04:47:41;;;;;;;3.83;3.37;;;;;;;;;;4380061;32;20149;-67
2022/07/16 04:50:08;;;;;;;5.65;3.30;;;;;;;;;;4379835;32;20499;-67
2022/07/16 04:52:35;;;;;;;4.22;3.10;;;;;;;;;;4380187;32;20236;-67
2022/07/16 04:55:02;;;;;;;3.28;2.85;;;;;;;;;;4367818;32;20520;-67
2022/07/16 04:57:29;;;;;;;5.32;2.90;;;;;;;;;;4392638;32;20084;-67
2022/07/16 04:59:56;;;;;;;5.87;3.60;;;;;;;;;;4393112;32;20096;-67
2022/07/16 05:05:08;;;;;;;3.72;3.30;;;;;;;;;;4393034;32;20459;-67
2022/07/16 05:07:36;;;;;;;4.43;3.17;;;;;;;;;;4367467;32;20094;-67
2022/07/16 05:10:03;;;;;;;3.90;2.85;;;;;;;;;;4392912;32;20089;-67
2022/07/16 05:12:30;;;;;;;5.15;3.37;;;;;;;;;;4379767;32;20153;-67
2022/07/16 05:14:57;;;;;;;3.95;3.33;;;;;;;;;;4379837;32;20074;-68
2022/07/16 05:17:24;;;;;;;4.53;3.22;;;;;;;;;;4367118;32;20074;-67
2022/07/16 05:19:50;;;;;;;3.62;3.17;;;;;;;;;;4392149;32;20081;-67
2022/07/16 05:22:17;;;;;;;3.00;2.70;;;;;;;;;;4379619;32;20085;-67
2022/07/16 05:24:44;;;;;;;4.32;3.10;;;;;;;;;;4379329;32;20078;-67
2022/07/16 05:27:11;;;;;;;5.57;2.92;;;;;;;;;;4367219;32;20082;-66
2022/07/16 05:29:38;;;;;;;3.40;3.10;;;;;;;;;;4392157;32;20528;-66
2022/07/16 05:32:05;;;;;;;5.12;3.20;;;;;;;;;;4367187;32;20086;-67
2022/07/16 05:34:32;;;;;;;5.28;3.10;;;;;;;;;;4367389;32;20085;-66
2022/07/16 05:36:59;;;;;;;4.03;3.10;;;;;;;;;;4366778;32;20086;-66
2022/07/16 05:39:26;;;;;;;3.78;3.12;;;;;;;;;;4392125;32;20065;-68
2022/07/16 05:41:53;;;;;;;3.08;2.78;;;;;;;;;;4366790;32;20085;-68
2022/07/16 05:44:20;;;;;;;4.60;3.20;;;;;;;;;;4379169;32;20061;-67
2022/07/16 05:46:47;;;;;;;3.95;3.10;;;;;;;;;;4379333;32;20179;-67
2022/07/16 05:49:14;;;;;;;3.87;3.12;;;;;;;;;;4366892;32;20158;-67
2022/07/16 05:51:40;;;;;;;5.72;3.00;;;;;;;;;;4380034;32;20066;-68
2022/07/16 05:54:07;;;;;;;4.93;3.12;;;;;;;;;;4391782;32;20097;-68
2022/07/16 05:56:34;;;;;;;3.95;3.00;;;;;;;;;;4392845;32;20510;-67
2022/07/16 05:59:02;;;;;;;3.75;2.72;;;;;;;;;;4379158;32;20066;-67
2022/07/16 06:01:32;;;;;;;3.33;2.87;;;;;;;;;;4379701;32;20162;-68
2022/07/16 06:03:59;;;;;;;3.08;2.78;;;;;;;;;;4366874;32;20078;-69
2022/07/16 06:06:26;;;;;;;5.07;2.70;;;;;;;;;;4378920;32;20547;-69
2022/07/16 16:07:02;;;;;;;8.48;3.97;;;;;;;;;;4393335;32;20089;-66
2022/07/16 16:09:29;;;;;;;;;;;;;;;;;;4381353;32;20097;-66
2022/07/16 16:11:55;;;;;;;;;;;;;;;;;;4380864;32;19977;-66
2022/07/16 16:14:22;;;;;;;4.53;3.70;;;;;;;;;;4394936;32;20053;-67
2022/07/16 16:16:49;;;;;;;4.93;3.40;;;;;;;;;;4367132;32;20496;-66
2022/07/16 16:19:16;;;;;;;5.00;3.42;;;;;;;;;;4379422;32;20088;-67
2022/07/16 16:21:43;;;;;;;4.87;3.60;;;;;;;;;;4391182;32;20512;-65
2022/07/16 17:08:33;;;;;;;5.28;3.17;;;;;;;;;;4393945;32;20165;-66
2022/07/16 17:11:00;;;;;;;4.25;3.47;;;;;;;;;;4379972;32;20081;-65
2022/07/16 17:13:26;;;;;;;4.15;3.10;;;;;;;;;;4367728;32;20081;-66
2022/07/16 17:15:53;;;;;;;5.20;3.50;;;;;;;;;;4380157;32;20093;-66
2022/07/16 17:18:20;;;;;;;4.10;3.10;;;;;;;;;;4367424;32;20082;-64
2022/07/16 17:20:47;;;;;;;5.82;3.22;;;;;;;;;;4379841;32;20164;-66
2022/07/16 17:23:14;;;;;;;5.93;3.08;;;;;;;;;;4367206;32;20085;-66
2022/07/16 17:25:41;;;;;;;4.97;3.12;;;;;;;;;;4379573;32;20531;-67
2022/07/16 17:28:07;;;;;;;5.18;3.90;;;;;;;;;;4379708;32;20073;-66
2022/07/16 17:30:34;;;;;;;5.90;3.58;;;;;;;;;;4393604;32;20518;-68
2022/07/16 17:33:01;;;;;;;4.62;3.25;;;;;;;;;;4379709;32;20074;-66
2022/07/16 17:35:28;;;;;;;5.65;3.78;;;;;;;;;;4379296;32;20171;-66
2022/07/16 17:37:55;;;;;;;5.60;3.33;;;;;;;;;;4379493;32;20097;-66
2022/07/16 17:40:22;;;;;;;5.20;3.47;;;;;;;;;;4379645;32;20608;-65
2022/07/16 17:42:49;;;;;;;4.35;3.22;;;;;;;;;;4379746;32;20082;-66
2022/07/16 17:45:15;;;;;;;5.50;3.20;;;;;;;;;;4379315;32;20078;-66
2022/07/16 17:47:42;;;;;;;7.55;3.78;;;;;;;;;;4392172;32;20184;-66
2022/07/16 17:50:10;;;;;;;4.28;3.45;;;;;;;;;;4367429;32;20090;-66
2022/07/16 17:52:37;;;;;;;4.53;3.70;;;;;;;;;;4392067;32;20433;-66
2022/07/16 17:55:06;;;;;;;7.12;3.60;;;;;;;;;;4380004;32;20070;-66
2022/07/16 17:57:34;;;;;;;10.45;4.00;;;;;;;;;;4367044;32;20224;-66
2022/07/16 18:00:01;;;;;;;5.78;3.62;;;;;;;;;;4379539;32;20084;-66
2022/07/16 18:02:27;;;;;;;5.78;3.42;;;;;;;;;;4379406;32;20082;-66
2022/07/16 18:04:54;;;;;;;4.28;3.37;;;;;;;;;;4366582;32;20077;-66
2022/07/16 18:07:21;;;;;;;4.45;3.55;;;;;;;;;;4379500;32;20066;-65
2022/07/16 18:09:48;;;;;;;6.18;3.60;;;;;;;;;;4391679;32;20220;-66
2022/07/16 18:12:16;;;;;;;5.47;3.62;;;;;;;;;;4378850;32;20093;-66
2022/07/16 18:14:43;;;;;;;5.95;3.60;;;;;;;;;;4379184;32;20081;-65
2022/07/16 18:17:10;;;;;;;6.93;3.83;;;;;;;;;;4379091;32;20500;-66
2022/07/16 18:19:37;;;;;;;6.43;3.90;;;;;;;;;;4378904;32;20103;-65
2022/07/16 18:22:04;;;;;;;4.32;3.58;;;;;;;;;;4379579;32;20145;-66
2022/07/16 18:24:31;;;;;;;5.03;3.78;;;;;;;;;;4378802;32;20089;-66
2022/07/16 18:26:58;;;;;;;6.25;3.92;;;;;;;;;;4378932;32;20105;-65
2022/07/16 18:29:25;;;;;;;5.50;3.42;;;;;;;;;;4391772;32;20072;-66
2022/07/16 18:31:51;;;;;;;6.20;3.70;;;;;;;;;;4378845;32;20594;-64
2022/07/16 18:34:19;;;;;;;5.25;3.70;;;;;;;;;;4391548;32;20166;-66
2022/07/16 18:36:46;;;;;;;6.47;3.80;;;;;;;;;;4366521;32;20089;-66
2022/07/16 18:39:13;;;;;;;7.35;3.60;;;;;;;;;;4378830;32;20073;-65
2022/07/16 18:41:40;;;;;;;5.85;3.65;;;;;;;;;;4365979;32;20088;-66
2022/07/16 18:44:07;;;;;;;4.82;3.50;;;;;;;;;;4391245;32;20084;-67
2022/07/16 18:46:43;;;;;;;5.40;3.60;;;;;;;;;;4378796;32;20171;-65
2022/07/16 18:49:13;;;;;;;4.10;3.40;;;;;;;;;;4391143;32;20097;-66
2022/07/16 18:51:42;;;;;;;6.47;3.30;;;;;;;;;;4392413;32;20149;-66
2022/07/16 18:54:10;;;;;;;8.25;3.53;;;;;;;;;;4378569;32;20073;-66
2022/07/16 18:56:36;;;;;;;5.32;3.67;;;;;;;;;;4378817;32;20074;-66
2022/07/16 18:59:04;;;;;;;4.45;3.40;;;;;;;;;;4365859;32;20077;-66
2022/07/16 19:01:31;;;;;;;5.35;3.60;;;;;;;;;;4366126;32;20109;-66
2022/07/16 19:03:57;;;;;;;6.50;3.58;;;;;;;;;;4377863;32;20523;-66
2022/07/16 19:06:24;;;;;;;4.85;3.17;;;;;;;;;;4377843;32;20081;-67
2022/07/16 19:08:51;;;;;;;4.30;3.30;;;;;;;;;;4365743;32;20112;-66
2022/07/16 19:11:18;;;;;;;7.95;4.00;;;;;;;;;;4379124;32;20086;-66
2022/07/16 19:13:57;;;;;;;4.82;3.47;;;;;;;;;;4378312;32;20531;-65
2022/07/16 19:16:32;;;;;;;4.70;3.50;;;;;;;;;;4379295;32;20074;-65
2022/07/16 19:18:59;;;;;;;14.90;4.82;;;;;;;;;;4391081;32;20158;-66
2022/07/16 19:21:26;;;;;;;4.35;3.40;;;;;;;;;;4378412;32;20078;-64
2022/07/16 19:23:53;;;;;;;5.50;3.65;;;;;;;;;;4378234;32;20216;-65
2022/07/16 19:26:23;;;;;;;5.47;3.87;;;;;;;;;;4378138;32;20089;-66
2022/07/16 19:28:50;;;;;;;6.00;3.75;;;;;;;;;;4378278;32;20150;-66
2022/07/16 19:31:16;;;;;;;4.97;3.50;;;;;;;;;;4390909;32;20097;-66
2022/07/16 19:33:44;;;;;;;5.15;3.50;;;;;;;;;;4391999;32;20100;-65
2022/07/16 19:36:11;;;;;;;4.37;3.33;;;;;;;;;;4377932;32;20076;-66
2022/07/16 19:38:38;;;;;;;5.28;3.53;;;;;;;;;;4390595;32;20081;-65
2022/07/16 19:41:05;;;;;;;7.70;4.43;;;;;;;;;;4378010;32;20501;-66
2022/07/16 19:43:32;;;;;;;3.87;3.35;;;;;;;;;;4378487;32;20078;-65
2022/07/16 19:45:59;;;;;;;5.12;3.65;;;;;;;;;;4390573;32;20070;-66
2022/07/16 19:48:27;;;;;;;4.20;3.60;;;;;;;;;;4390329;32;20509;-66
2022/07/16 19:50:54;;;;;;;5.43;3.67;;;;;;;;;;4378158;32;20065;-66
2022/07/16 19:53:21;;;;;;;6.50;3.62;;;;;;;;;;4390434;32;20078;-64
2022/07/16 19:58:33;;;;;;;7.03;4.15;;;;;;;;;;4390406;32;20073;-66
2022/07/16 20:01:00;;;;;;;5.15;3.90;;;;;;;;;;4377995;32;20092;-64
2022/07/16 20:03:26;;;;;;;4.40;3.65;;;;;;;;;;4377776;32;20073;-65
2022/07/16 20:05:53;;;;;;;7.20;3.53;;;;;;;;;;4364761;32;20066;-65
2022/07/16 20:08:20;;;;;;;5.65;3.70;;;;;;;;;;4377533;32;20077;-66
2022/07/16 20:10:47;;;;;;;6.28;3.87;;;;;;;;;;4365056;32;20082;-66
2022/07/16 20:13:14;;;;;;;5.43;3.65;;;;;;;;;;4364989;32;20085;-66
2022/07/16 20:15:41;;;;;;;5.87;3.78;;;;;;;;;;4389689;32;20157;-66
2022/07/16 20:18:08;;;;;;;7.55;4.43;;;;;;;;;;4389952;32;20078;-65
2022/07/16 20:20:35;;;;;;;5.28;3.83;;;;;;;;;;4389897;32;20067;-66
2022/07/16 20:23:01;;;;;;;4.95;3.70;;;;;;;;;;4389614;32;20530;-65
2022/07/16 20:25:28;;;;;;;6.85;3.92;;;;;;;;;;4389537;32;20078;-66
2022/07/16 20:27:55;;;;;;;6.57;3.95;;;;;;;;;;4377082;32;20068;-66
2022/07/16 20:30:27;;;;;;;5.97;4.25;;;;;;;;;;4364704;32;20077;-66
2022/07/16 20:32:54;;;;;;;5.50;3.72;;;;;;;;;;4377900;32;20150;-66
2022/07/16 20:35:21;;;;;;;6.60;4.15;;;;;;;;;;4390021;32;20090;-66
2022/07/16 20:37:47;;;;;;;7.22;3.87;;;;;;;;;;4389857;32;20170;-65
2022/07/16 20:40:15;;;;;;;6.80;4.10;;;;;;;;;;4364472;32;20088;-66
2022/07/16 20:42:44;;;;;;;7.15;4.10;;;;;;;;;;4364933;32;20061;-66
2022/07/16 20:45:11;;;;;;;7.43;4.12;;;;;;;;;;4390737;32;20154;-65
2022/07/16 20:47:38;;;;;;;5.32;3.95;;;;;;;;;;4380642;32;20505;-66
2022/07/16 20:50:06;;;;;;;5.93;4.30;;;;;;;;;;4365151;32;20456;-66
2022/07/16 20:52:33;;;;;;;7.18;4.12;;;;;;;;;;4364981;32;20090;-65
2022/07/16 20:55:00;;;;;;;5.12;3.85;;;;;;;;;;4379504;32;20097;-66
2022/07/16 20:57:27;;;;;;;6.37;4.15;;;;;;;;;;4384514;32;20081;-66
2022/07/16 20:59:53;;;;;;;5.15;4.05;;;;;;;;;;4397438;32;20086;-66
2022/07/16 21:02:20;;;;;;;5.35;4.20;;;;;;;;;;4395400;32;20142;-65
2022/07/16 21:04:47;;;;;;;5.82;4.05;;;;;;;;;;4378916;32;20086;-66
2022/07/16 21:07:13;;;;;;;4.97;3.90;;;;;;;;;;4377733;32;20081;-66
2022/07/16 21:09:40;;;;;;;5.28;4.20;;;;;;;;;;4364617;32;20094;-66
2022/07/16 21:12:07;;;;;;;6.28;4.43;;;;;;;;;;4389634;32;20077;-66
2022/07/16 21:14:34;;;;;;;11.18;4.70;;;;;;;;;;4390135;32;20086;-66
2022/07/16 21:17:01;;;;;;;5.80;3.97;;;;;;;;;;4377211;32;20062;-66
2022/07/16 21:19:28;;;;;;;8.40;4.45;;;;;;;;;;4376967;32;20085;-66
2022/07/16 21:21:55;;;;;;;6.70;4.55;;;;;;;;;;4389463;32;20161;-66
2022/07/16 21:24:22;;;;;;;5.57;4.20;;;;;;;;;;4377468;32;20069;-66
2022/07/16 21:26:48;;;;;;;5.70;4.43;;;;;;;;;;4377470;32;20080;-66
2022/07/16 21:29:15;;;;;;;5.65;4.20;;;;;;;;;;4366428;32;20165;-66
2022/07/16 21:31:42;;;;;;;8.00;4.35;;;;;;;;;;4379452;32;20495;-66
2022/07/16 21:34:09;;;;;;;5.20;4.35;;;;;;;;;;4393845;32;20089;-66
2022/07/16 21:36:36;;;;;;;7.90;4.30;;;;;;;;;;4379373;32;20070;-66
2022/07/16 21:39:03;;;;;;;6.30;4.20;;;;;;;;;;4392436;32;20073;-66
2022/07/16 21:41:29;;;;;;;5.82;4.25;;;;;;;;;;4379429;32;20173;-66
2022/07/16 21:43:57;;;;;;;5.80;4.28;;;;;;;;;;4367097;32;20065;-66
2022/07/16 21:46:24;;;;;;;7.57;4.80;;;;;;;;;;4379638;32;20055;-66
2022/07/16 21:48:50;;;;;;;7.03;5.10;;;;;;;;;;4391930;32;20107;-67
2022/07/16 21:51:18;;;;;;;9.85;4.62;;;;;;;;;;4379330;32;20149;-66
2022/07/16 21:53:45;;;;;;;6.10;4.35;;;;;;;;;;4379345;32;20077;-66
2022/07/16 21:56:12;;;;;;;5.55;4.03;;;;;;;;;;4392151;32;20152;-66
2022/07/16 21:58:39;;;;;;;6.00;4.53;;;;;;;;;;4379239;32;20527;-65
2022/07/16 22:01:06;;;;;;;5.35;4.30;;;;;;;;;;4393471;32;20157;-66
2022/07/16 22:03:33;;;;;;;6.40;4.05;;;;;;;;;;4366625;32;20074;-67
2022/07/16 22:06:00;;;;;;;6.78;4.35;;;;;;;;;;4379340;32;20540;-66
2022/07/16 22:08:26;;;;;;;5.10;4.10;;;;;;;;;;4378813;32;20433;-66
2022/07/16 22:10:54;;;;;;;5.28;4.43;;;;;;;;;;4379472;32;20440;-66
2022/07/16 22:13:21;;;;;;;7.05;4.43;;;;;;;;;;4379128;32;20480;-66
2022/07/16 22:15:48;;;;;;;5.60;4.18;;;;;;;;;;4379051;32;20080;-66
2022/07/16 22:18:15;;;;;;;5.43;4.40;;;;;;;;;;4366578;32;20083;-65
2022/07/16 22:20:54;;;;;;;6.40;4.28;;;;;;;;;;4366517;32;20158;-66
2022/07/16 22:23:26;;;;;;;4.37;3.62;;;;;;;;;;4380708;32;20077;-66
2022/07/16 22:25:55;;;;;;;4.72;3.75;;;;;;;;;;4391476;32;20066;-66
2022/07/16 22:28:22;;;;;;;6.00;4.20;;;;;;;;;;4379120;32;20504;-66
2022/07/16 22:30:52;;;;;;;7.37;4.55;;;;;;;;;;4378926;32;20517;-66
2022/07/16 22:33:19;;;;;;;6.47;4.40;;;;;;;;;;4366335;32;20086;-65
2022/07/16 22:35:47;;;;;;;5.15;4.22;;;;;;;;;;4366703;32;20511;-66
2022/07/16 22:38:14;;;;;;;5.18;4.10;;;;;;;;;;4366414;32;20137;-66
2022/07/16 22:40:41;;;;;;;5.40;3.90;;;;;;;;;;4366121;32;20089;-66
2022/07/16 22:43:07;;;;;;;5.75;4.10;;;;;;;;;;4390990;32;20081;-66
2022/07/16 22:45:34;;;;;;;5.57;4.00;;;;;;;;;;4366459;32;20209;-66
2022/07/16 22:48:01;;;;;;;5.93;4.32;;;;;;;;;;4378701;32;20085;-65
2022/07/16 22:50:28;;;;;;;5.37;4.43;;;;;;;;;;4391346;32;20522;-66
2022/07/16 22:52:55;;;;;;;5.70;4.10;;;;;;;;;;4366177;32;20085;-66
2022/07/16 22:55:22;;;;;;;6.78;4.10;;;;;;;;;;4378498;32;20085;-65
2022/07/16 22:57:49;;;;;;;6.95;4.18;;;;;;;;;;4391044;32;20076;-66
2022/07/16 23:00:16;;;;;;;6.57;4.03;;;;;;;;;;4378444;32;20148;-65
2022/07/16 23:02:43;;;;;;;5.40;4.28;;;;;;;;;;4390861;32;20070;-66
2022/07/16 23:05:10;;;;;;;7.82;4.30;;;;;;;;;;4365730;32;20074;-66
2022/07/16 23:07:38;;;;;;;6.87;4.30;;;;;;;;;;4390747;32;20059;-66
2022/07/16 23:10:06;;;;;;;6.82;4.20;;;;;;;;;;4378174;32;20511;-66
2022/07/16 23:12:33;;;;;;;4.93;4.00;;;;;;;;;;4390911;32;20065;-66
2022/07/16 23:14:59;;;;;;;5.20;4.07;;;;;;;;;;4365558;32;20519;-66
2022/07/16 23:17:26;;;;;;;6.47;4.32;;;;;;;;;;4378189;32;20074;-67
2022/07/16 23:19:53;;;;;;;5.65;4.30;;;;;;;;;;4378240;32;20090;-66
2022/07/16 23:22:20;;;;;;;5.00;4.18;;;;;;;;;;4390986;32;20085;-66
2022/07/16 23:24:47;;;;;;;6.40;4.40;;;;;;;;;;4365335;32;20115;-66
2022/07/16 23:27:14;;;;;;;7.32;3.92;;;;;;;;;;4365651;32;20082;-66
2022/07/16 23:29:41;;;;;;;6.95;4.10;;;;;;;;;;4390693;32;20073;-66
2022/07/16 23:32:08;;;;;;;4.70;3.85;;;;;;;;;;4378757;32;20089;-66
2022/07/16 23:34:35;;;;;;;6.82;4.40;;;;;;;;;;4378404;32;20166;-66
2022/07/16 23:37:01;;;;;;;7.70;4.43;;;;;;;;;;4365303;32;20609;-66
2022/07/16 23:39:28;;;;;;;6.70;4.00;;;;;;;;;;4390470;32;20168;-65
2022/07/16 23:41:55;;;;;;;6.43;4.45;;;;;;;;;;4391091;32;20468;-66
2022/07/16 23:44:22;;;;;;;7.90;4.10;;;;;;;;;;4365485;32;20534;-66
2022/07/16 23:46:48;;;;;;;5.85;3.97;;;;;;;;;;4377977;32;20084;-66
2022/07/16 23:49:15;;;;;;;4.57;3.75;;;;;;;;;;4378124;32;20510;-66
2022/07/16 23:51:43;;;;;;;5.78;4.30;;;;;;;;;;4377352;32;20076;-66
2022/07/16 23:54:10;;;;;;;6.82;4.28;;;;;;;;;;4377700;32;20182;-66
2022/07/16 23:56:37;;;;;;;6.25;4.03;;;;;;;;;;4378104;32;20465;-66
2022/07/16 23:59:04;;;;;;;7.30;4.32;;;;;;;;;;4391617;32;20187;-66
